Aplicació Alertes

Dades de l'estació automàtica Puigcerdà

?
?
Resum diari 22:30 TU
Dades diàries de l'estació meteorològica
Temperatura mitjana 0.7 °C
Temperatura màxima 5.5 °C 12:24 TU
Temperatura mínima -3.4 °C 4:03 TU
Humitat relativa mitjana 49%
Precipitació acumulada 0.0 mm
Ratxa màxima del vent (10 m) 34.2 km/h - 84º 8:32 TU
Pressió atmosfèrica mitjana 1027.1 hPa
Irradiació solar global 9.2 MJ/m2

El tram horari està expressat en Temps Universal (TU). Cal sumar una hora en horari d'hivern i dues en horari d'estiu per passar a l'hora oficial.

Puigcerdà

Metadades estació meteorol´gica
Municipi Puigcerdà
Comarca Cerdanya
Altitud 1213 m
Data alta 22.03.2016
Estat actual Operativa
Dades de període
Període
TU
TM
°C
TX
°C
TN
°C
HRM
%
PPT
mm
VVM (10 m)
km/h
DVM (10 m)
graus
VVX (10 m)
km/h
PM
hPa
RS
W/m2
00:00 - 00:30 -1.4 -0.8 -1.7 47 0.0 7.9 59 24.1 1024.9 0
00:30 - 01:00 -1.5 -1.0 -2.0 49 0.0 6.5 124 22.3 1024.9 0
01:00 - 01:30 -2.3 -2.0 -2.7 56 0.0 6.8 78 16.9 1025.6 0
01:30 - 02:00 -2.3 -2.0 -2.7 55 0.0 6.5 185 18.0 1025.7 0
02:00 - 02:30 -2.7 -2.4 -3.1 54 0.0 3.2 85 13.7 1026.3 0
02:30 - 03:00 -2.5 -2.3 -2.7 52 0.0 9.4 83 25.2 1026.2 0
03:00 - 03:30 -2.8 -2.6 -3.0 54 0.0 6.5 20 18.4 1026.4 0
03:30 - 04:00 -2.8 -2.5 -3.2 52 0.0 4.3 358 13.7 1026.6 0
04:00 - 04:30 -2.9 -2.6 -3.4 53 0.0 3.2 224 13.3 1027.0 0
04:30 - 05:00 -2.7 -2.3 -2.9 51 0.0 4.7 205 12.2 1027.1 0
05:00 - 05:30 -2.8 -2.6 -3.2 52 0.0 5.0 105 11.9 1027.3 0
05:30 - 06:00 -2.6 -2.3 -3.1 51 0.0 7.2 16 16.6 1027.3 0
06:00 - 06:30 -2.6 -2.4 -2.7 51 0.0 7.6 27 24.5 1027.4 0
06:30 - 07:00 -2.3 -2.1 -2.6 53 0.0 16.6 60 30.6 1027.6 0
07:00 - 07:30 -1.6 -1.4 -2.0 49 0.0 15.1 62 31.0 1027.6 4
07:30 - 08:00 -1.7 -1.4 -1.9 48 0.0 7.9 17 23.0 1028.0 25
08:00 - 08:30 -0.5 1.0 -2.0 44 0.0 8.6 45 23.0 1027.4 134
08:30 - 09:00 1.3 2.0 0.9 39 0.0 14.0 71 34.2 1026.8 261
09:00 - 09:30 2.4 3.2 1.7 37 0.0 5.8 25 18.0 1026.3 303
09:30 - 10:00 3.8 4.3 3.2 34 0.0 4.3 125 14.4 1025.7 388
10:00 - 10:30 4.2 5.1 3.5 34 0.0 6.8 103 21.2 1025.9 464
10:30 - 11:00 4.5 4.9 4.1 34 0.0 5.8 206 15.5 1025.7 453
11:00 - 11:30 4.0 4.6 3.2 39 0.0 8.3 287 22.0 1026.0 366
11:30 - 12:00 4.2 4.6 3.7 41 0.0 11.9 298 28.1 1025.7 450
12:00 - 12:30 4.5 5.5 3.7 40 0.0 7.9 13 25.2 1025.4 449
12:30 - 13:00 4.5 5.1 3.7 42 0.0 9.4 305 22.3 1025.2 394
13:00 - 13:30 3.9 4.2 3.6 46 0.0 12.2 298 29.9 1025.3 341
13:30 - 14:00 4.6 5.2 4.1 44 0.0 11.2 306 27.7 1024.6 360
14:00 - 14:30 4.2 4.5 4.0 47 0.0 12.6 303 30.6 1025.1 341
14:30 - 15:00 3.4 3.9 3.2 48 0.0 14.0 293 31.3 1025.4 190
15:00 - 15:30 3.1 3.3 2.9 51 0.0 15.5 296 33.5 1025.8 173
15:30 - 16:00 2.7 2.9 2.2 52 0.0 11.5 294 25.2 1026.4 77
16:00 - 16:30 2.4 2.7 1.7 51 0.0 10.1 310 28.1 1026.8 16
16:30 - 17:00 1.6 1.7 1.4 53 0.0 12.2 295 26.3 1027.6 0
17:00 - 17:30 1.3 1.4 1.2 54 0.0 10.1 298 25.9 1027.9 0
17:30 - 18:00 1.4 1.8 0.9 52 0.0 6.8 331 14.4 1028.3 0
18:00 - 18:30 1.2 1.8 1.0 52 0.0 5.0 35 14.8 1028.7 0
18:30 - 19:00 1.1 1.6 0.8 53 0.0 3.6 329 12.2 1029.3 0
19:00 - 19:30 1.3 1.5 1.1 54 0.0 6.5 41 16.9 1029.4 0
19:30 - 20:00 1.0 1.2 0.8 55 0.0 4.3 344 12.2 1029.4 0
20:00 - 20:30 0.7 1.0 0.1 56 0.0 3.6 236 9.0 1029.6 0
20:30 - 21:00 0.7 1.3 0.2 57 0.0 6.5 274 23.0 1029.5 0
21:00 - 21:30 1.2 1.5 0.9 57 0.0 7.9 249 22.7 1029.3 0
21:30 - 22:00 1.3 1.6 1.0 57 0.0 6.5 188 19.1 1029.7 0
22:00 - 22:30 1.2 1.5 0.8 60 0.0 6.5 251 18.0 1030.0 0
22:30 - 23:00 0.7 1.2 0.2 64 0.0 5.8 170 16.2 1030.7 0

Les dades en taronja només han passat un control de qualitat automàtic. Resta pendent la seva validació definitiva.